Time;durP1;ratioP1;P1;durP2;ratioP2;P2;SDS_P1;SDS_P2;PMS_P1;PMS_P2;Temp;Humidity;BMP_temperature;BMP_pressure;BME280_temperature;BME280_humidity;BME280_pressure;Samples;Min_cycle;Max_cycle;Signal;HPM_P1;HPM_P2
2021/10/23 00:01:06;;;;;;;10.05;3.55;;;;;;;5.29;58.44;98345.59;5114067;28;20393;-76
2021/10/23 00:03:32;;;;;;;6.78;2.83;;;;;;;5.33;58.09;98346.19;5113335;28;20047;-76
2021/10/23 00:05:57;;;;;;;6.53;2.35;;;;;;;5.38;58.07;98351.09;5114007;28;20122;-74
2021/10/23 00:08:23;;;;;;;7.75;2.30;;;;;;;5.43;58.04;98354.19;5095864;28;20556;-76
2021/10/23 00:10:49;;;;;;;16.45;3.42;;;;;;;5.48;57.75;98352.03;5114194;28;20412;-76
2021/10/23 00:13:15;;;;;;;6.07;2.42;;;;;;;5.55;57.60;98353.22;5113194;28;20059;-74
2021/10/23 00:15:41;;;;;;;9.90;3.00;;;;;;;5.59;58.09;98356.44;5114290;28;20083;-74
2021/10/23 00:18:15;;;;;;;7.03;2.67;;;;;;;5.62;57.15;98359.69;5113704;28;20122;-72
2021/10/23 00:20:41;;;;;;;6.10;2.70;;;;;;;5.67;57.61;98357.53;5114286;28;20092;-74
2021/10/23 00:23:07;;;;;;;4.82;2.30;;;;;;;5.67;57.55;98349.66;5095258;28;20100;-76
2021/10/23 00:25:33;;;;;;;8.27;2.75;;;;;;;5.73;57.42;98356.22;5114049;28;20047;-75
2021/10/23 00:27:59;;;;;;;5.60;2.90;;;;;;;5.72;57.00;98356.31;5113402;28;20039;-76
2021/10/23 00:30:25;;;;;;;9.02;2.72;;;;;;;5.71;57.13;98354.66;5113605;28;20073;-75
2021/10/23 00:32:52;;;;;;;7.25;2.22;;;;;;;5.69;57.57;98353.94;5078134;28;20098;-73
2021/10/23 00:35:18;;;;;;;8.60;2.70;;;;;;;5.69;57.73;98359.19;5113448;28;20130;-75
2021/10/23 00:37:43;;;;;;;6.65;2.65;;;;;;;5.71;57.49;98346.78;5113338;28;20071;-75
2021/10/23 00:40:10;;;;;;;9.93;3.00;;;;;;;5.73;57.35;98342.25;5113410;28;20074;-78
2021/10/23 00:42:36;;;;;;;7.78;2.50;;;;;;;5.76;57.87;98344.66;5113531;28;20122;-73
2021/10/23 00:45:03;;;;;;;11.48;2.63;;;;;;;5.80;57.16;98341.63;5113258;28;20122;-75
2021/10/23 00:47:29;;;;;;;8.27;3.03;;;;;;;5.81;57.83;98342.50;5113209;28;20104;-72
2021/10/23 00:49:55;;;;;;;6.72;2.58;;;;;;;5.81;58.10;98334.63;5094804;28;20044;-73
2021/10/23 00:52:25;;;;;;;10.45;3.70;;;;;;;5.80;58.22;98340.81;5094722;28;20376;-76
2021/10/23 00:54:51;;;;;;;20.98;4.00;;;;;;;5.80;57.50;98346.88;5113571;28;20047;-74
2021/10/23 00:57:17;;;;;;;15.13;3.85;;;;;;;5.82;57.95;98345.00;5094434;28;20047;-77
2021/10/23 00:59:43;;;;;;;7.40;2.75;;;;;;;5.85;57.63;98348.34;5113241;28;20044;-74
2021/10/23 01:02:09;;;;;;;4.82;2.15;;;;;;;5.84;58.00;98344.84;5112519;28;20112;-74
2021/10/23 01:04:35;;;;;;;4.85;2.15;;;;;;;5.85;57.17;98354.41;5094871;28;20043;-75
2021/10/23 01:07:01;;;;;;;10.48;2.63;;;;;;;5.89;57.87;98347.13;5112826;28;20040;-76
2021/10/23 01:09:27;;;;;;;6.65;2.10;;;;;;;5.90;58.03;98348.81;5112480;28;20039;-72
2021/10/23 01:11:54;;;;;;;5.28;2.25;;;;;;;5.91;57.58;98342.59;5112881;28;20380;-74
2021/10/23 01:14:25;;;;;;;6.10;2.47;;;;;;;5.91;57.37;98353.09;5111388;28;20462;-73
2021/10/23 01:16:53;;;;;;;8.48;2.80;;;;;;;5.97;58.01;98357.84;5112504;28;20487;-73
2021/10/23 01:19:18;;;;;;;11.65;3.13;;;;;;;5.90;57.54;98354.06;5112355;28;20086;-75
2021/10/23 01:21:47;;;;;;;8.18;2.50;;;;;;;5.95;57.73;98350.09;5112257;28;20074;-73
2021/10/23 01:24:13;;;;;;;;;;;;;;;5.90;57.19;98356.69;5112116;28;20062;-75
2021/10/23 01:26:42;;;;;;;8.95;2.05;;;;;;;5.89;58.10;98355.00;5094421;28;19920;-73
2021/10/23 01:29:10;;;;;;;6.10;2.60;;;;;;;5.89;58.11;98355.81;5112293;28;20088;-75
2021/10/23 01:31:36;;;;;;;6.82;2.03;;;;;;;5.93;57.75;98357.28;5113128;28;20043;-74
2021/10/23 01:34:23;;;;;;;11.10;3.20;;;;;;;5.94;57.30;98353.69;5113116;28;20046;-79
2021/10/23 01:36:52;;;;;;;5.40;2.13;;;;;;;5.93;57.80;98357.28;5094857;28;20036;-75
2021/10/23 01:39:18;;;;;;;5.53;2.10;;;;;;;5.96;57.51;98351.75;5112220;28;20051;-72
2021/10/23 01:41:44;;;;;;;6.38;2.53;;;;;;;5.97;57.69;98358.69;5093896;28;20050;-75
2021/10/23 01:44:12;;;;;;;8.50;2.30;;;;;;;6.04;57.61;98358.22;5112074;28;20039;-77
2021/10/23 01:46:38;;;;;;;3.95;2.28;;;;;;;6.06;57.87;98345.81;5112636;28;20043;-74
2021/10/23 01:49:05;;;;;;;4.22;2.05;;;;;;;6.07;57.21;98342.22;5094485;28;20052;-72
2021/10/23 01:51:32;;;;;;;8.15;2.47;;;;;;;6.07;57.45;98353.56;5112964;28;20044;-73
2021/10/23 01:54:00;;;;;;;5.03;2.83;;;;;;;6.13;58.06;98349.59;5117397;28;20047;-76
2021/10/23 01:56:26;;;;;;;7.70;2.45;;;;;;;6.12;57.18;98348.78;5111693;28;20044;-74
2021/10/23 01:58:52;;;;;;;8.65;2.22;;;;;;;6.10;57.64;98347.25;5112018;28;20039;-73
2021/10/23 02:01:18;;;;;;;6.75;2.45;;;;;;;6.14;57.70;98354.75;5111606;28;20035;-73
2021/10/23 02:03:43;;;;;;;9.32;2.45;;;;;;;6.15;57.69;98355.56;5111785;28;20058;-75
2021/10/23 02:06:10;;;;;;;11.30;2.58;;;;;;;6.20;57.62;98358.66;5111836;28;20051;-75
2021/10/23 02:08:37;;;;;;;7.10;2.28;;;;;;;6.21;57.42;98357.72;5111694;28;20039;-73
2021/10/23 02:11:04;;;;;;;6.15;2.63;;;;;;;6.17;57.38;98364.16;5093639;28;20130;-74
2021/10/23 02:13:30;;;;;;;7.90;2.58;;;;;;;6.20;57.63;98361.28;5111406;28;20056;-73
2021/10/23 02:15:56;;;;;;;10.30;2.85;;;;;;;6.23;57.65;98358.44;5111751;28;20040;-73
2021/10/23 02:18:22;;;;;;;12.55;2.92;;;;;;;6.28;57.41;98364.13;5111629;28;20047;-76
2021/10/23 02:20:48;;;;;;;11.25;3.00;;;;;;;6.28;57.44;98361.50;5111746;28;20126;-73
2021/10/23 02:23:14;;;;;;;6.63;2.30;;;;;;;6.32;57.31;98362.94;5111217;28;20135;-76
2021/10/23 02:25:40;;;;;;;7.43;2.90;;;;;;;6.28;57.15;98364.13;5111352;28;20043;-74
2021/10/23 02:28:07;;;;;;;9.25;2.90;;;;;;;6.29;56.73;98365.81;5111326;28;20036;-73
2021/10/23 02:30:33;;;;;;;11.07;3.42;;;;;;;6.30;57.19;98364.84;5111592;28;20384;-73
2021/10/23 02:32:58;;;;;;;6.05;3.20;;;;;;;6.32;56.56;98352.41;5111474;28;20031;-75
2021/10/23 02:35:25;;;;;;;9.90;3.20;;;;;;;6.36;56.64;98362.69;5111333;28;20035;-75
2021/10/23 02:37:50;;;;;;;7.38;2.75;;;;;;;6.37;56.61;98353.84;5111558;28;20439;-73
2021/10/23 02:40:16;;;;;;;8.25;2.90;;;;;;;6.34;57.09;98360.16;5111321;28;20129;-73
2021/10/23 02:42:42;;;;;;;6.57;2.85;;;;;;;6.35;57.24;98361.84;5111111;28;20177;-74
2021/10/23 02:45:09;;;;;;;5.18;2.70;;;;;;;6.39;56.81;98357.19;5111021;28;20047;-75
2021/10/23 02:47:35;;;;;;;9.80;2.83;;;;;;;6.39;57.13;98354.56;5111128;28;20377;-75
2021/10/23 02:50:03;;;;;;;8.68;2.65;;;;;;;6.36;56.48;98352.19;5111283;28;20043;-74
2021/10/23 02:52:29;;;;;;;8.48;3.55;;;;;;;6.42;56.79;98357.75;5110935;28;20476;-74
2021/10/23 02:54:55;;;;;;;10.23;2.88;;;;;;;6.41;56.70;98363.97;5111248;28;20126;-78
2021/10/23 02:57:21;;;;;;;7.32;2.72;;;;;;;6.42;56.73;98356.94;5111107;28;21036;-72
2021/10/23 02:59:48;;;;;;;35.15;10.48;;;;;;;6.47;56.80;98357.41;5111261;28;20077;-73
2021/10/23 03:02:13;;;;;;;9.50;3.42;;;;;;;6.45;56.57;98359.31;5110880;28;20132;-73
2021/10/23 03:04:42;;;;;;;8.95;3.20;;;;;;;6.41;56.68;98355.28;5111559;28;20089;-73
2021/10/23 03:07:08;;;;;;;10.63;3.22;;;;;;;6.38;56.70;98358.97;5111622;28;20134;-73
2021/10/23 03:09:33;;;;;;;7.25;3.22;;;;;;;6.30;57.10;98358.75;5112314;28;20039;-76
2021/10/23 03:12:00;;;;;;;9.90;3.35;;;;;;;6.34;57.46;98364.59;5112356;28;20559;-74
2021/10/23 03:14:26;;;;;;;10.85;3.20;;;;;;;6.37;57.23;98359.09;5112027;28;20055;-75
2021/10/23 03:16:52;;;;;;;46.50;15.70;;;;;;;6.39;57.37;98362.44;5111961;28;20065;-72
2021/10/23 03:19:36;;;;;;;12.75;3.40;;;;;;;6.30;57.46;98370.09;5111398;28;20036;-77
2021/10/23 03:22:02;;;;;;;8.32;3.60;;;;;;;6.36;57.50;98374.03;5093948;28;20039;-75
2021/10/23 03:24:31;;;;;;;6.60;3.38;;;;;;;6.38;57.63;98363.38;5111823;28;20479;-75
2021/10/23 03:26:57;;;;;;;14.18;5.05;;;;;;;6.41;56.80;98366.59;5111818;28;20572;-75
2021/10/23 03:29:22;;;;;;;10.48;3.38;;;;;;;6.40;57.16;98364.94;5111729;28;20085;-75
2021/10/23 03:31:49;;;;;;;10.60;4.03;;;;;;;6.42;57.36;98364.81;5096235;28;20051;-72
2021/10/23 03:34:15;;;;;;;9.77;3.60;;;;;;;6.39;57.06;98363.28;5124633;28;20047;-74
2021/10/23 03:36:41;;;;;;;15.07;3.72;;;;;;;6.39;56.83;98362.44;5122440;28;20043;-71
2021/10/23 03:39:07;;;;;;;6.45;3.30;;;;;;;6.39;56.49;98367.69;5126332;28;20040;-74
2021/10/23 03:41:33;;;;;;;9.73;3.47;;;;;;;6.43;56.88;98364.69;5106263;28;20040;-72
2021/10/23 03:44:00;;;;;;;7.95;3.78;;;;;;;6.39;56.96;98367.69;5128313;28;20036;-72
2021/10/23 03:46:26;;;;;;;35.53;12.02;;;;;;;6.38;56.89;98366.00;5130243;28;20024;-74
2021/10/23 03:48:51;;;;;;;7.32;3.70;;;;;;;6.41;57.38;98360.53;5119452;28;20035;-75
2021/10/23 03:51:17;;;;;;;10.95;3.92;;;;;;;6.38;56.82;98374.75;5114485;28;20043;-75
2021/10/23 03:53:43;;;;;;;15.45;4.22;;;;;;;6.27;57.04;98372.16;5095857;28;20066;-76
2021/10/23 03:56:09;;;;;;;12.77;4.35;;;;;;;6.27;57.31;98375.59;5114181;28;20040;-78
2021/10/23 03:58:35;;;;;;;9.07;3.30;;;;;;;6.24;57.87;98386.34;5114414;28;20044;-76
2021/10/23 04:01:01;;;;;;;11.23;4.07;;;;;;;6.27;57.25;98383.47;5113691;28;20400;-77
2021/10/23 04:03:28;;;;;;;12.70;3.50;;;;;;;6.26;57.42;98381.78;5113718;28;20484;-73
2021/10/23 04:05:54;;;;;;;11.85;4.13;;;;;;;6.25;58.03;98380.13;5095251;28;20046;-75
2021/10/23 04:08:20;;;;;;;8.80;3.67;;;;;;;6.22;57.41;98382.16;5113379;28;20103;-75
2021/10/23 04:10:46;;;;;;;9.70;3.85;;;;;;;6.23;58.05;98382.06;5113905;28;20435;-76
2021/10/23 04:13:12;;;;;;;12.23;3.60;;;;;;;6.20;57.75;98384.91;5113437;28;20039;-76
2021/10/23 04:15:38;;;;;;;10.27;3.10;;;;;;;6.24;58.24;98386.34;5095466;28;20059;-76
2021/10/23 04:18:04;;;;;;;10.88;3.97;;;;;;;6.25;58.70;98379.31;5113262;28;20048;-75
2021/10/23 04:20:30;;;;;;;17.33;6.05;;;;;;;6.28;58.81;98385.16;5113119;28;20422;-77
2021/10/23 04:22:55;;;;;;;18.35;5.20;;;;;;;6.31;58.47;98387.50;5128600;27;20391;-78
2021/10/23 04:25:21;;;;;;;54.13;15.90;;;;;;;6.30;58.44;98392.88;5113050;28;20399;-77
2021/10/23 04:27:47;;;;;;;34.10;13.02;;;;;;;6.35;58.29;98390.72;5094980;28;20047;-74
2021/10/23 04:30:13;;;;;;;14.73;4.75;;;;;;;6.37;58.74;98401.94;5113593;28;20043;-75
2021/10/23 04:32:39;;;;;;;11.80;3.88;;;;;;;6.37;58.70;98396.69;5113625;28;20103;-74
2021/10/23 04:35:06;;;;;;;7.18;3.67;;;;;;;6.31;58.99;98408.50;5112985;28;20096;-79
2021/10/23 04:37:32;;;;;;;13.40;4.75;;;;;;;6.34;58.75;98411.88;5113400;28;20050;-75
2021/10/23 04:39:58;;;;;;;10.98;4.00;;;;;;;6.30;58.42;98406.84;5113832;28;20048;-73
2021/10/23 04:42:24;;;;;;;9.50;4.10;;;;;;;6.38;59.24;98405.41;5128755;27;20040;-78
2021/10/23 04:44:50;;;;;;;10.55;3.88;;;;;;;6.75;58.52;98403.28;5129001;27;20039;-81
2021/10/23 04:47:16;;;;;;;11.98;4.10;;;;;;;7.17;57.09;98405.09;5113017;28;20126;-80
2021/10/23 04:49:42;;;;;;;8.88;3.65;;;;;;;7.01;56.89;98405.53;5094967;28;20119;-75
2021/10/23 04:52:07;;;;;;;10.88;3.50;;;;;;;6.89;57.28;98396.03;5112905;28;20476;-78
2021/10/23 04:54:33;;;;;;;10.85;4.13;;;;;;;6.76;57.91;98404.91;5112862;28;20063;-80
2021/10/23 04:56:59;;;;;;;14.07;4.25;;;;;;;6.68;57.91;98399.47;5094823;28;20127;-77
2021/10/23 04:59:26;;;;;;;25.15;10.23;;;;;;;6.77;58.77;98411.84;5061058;28;20058;-75
2021/10/23 05:01:51;;;;;;;12.27;4.07;;;;;;;6.99;58.32;98409.25;5112533;28;20206;-76
2021/10/23 05:04:17;;;;;;;12.55;4.35;;;;;;;7.11;58.01;98413.47;5094259;28;20492;-77
2021/10/23 05:06:43;;;;;;;16.48;4.32;;;;;;;7.96;56.36;98416.00;5112468;28;20039;-76
2021/10/23 05:09:09;;;;;;;13.85;4.50;;;;;;;8.35;54.83;98410.84;5112870;28;20067;-74
2021/10/23 05:11:35;;;;;;;13.23;5.18;;;;;;;7.88;55.06;98414.06;5112817;28;20082;-77
2021/10/23 05:14:01;;;;;;;12.45;4.63;;;;;;;7.42;56.57;98413.53;5112366;28;20052;-78
2021/10/23 05:16:26;;;;;;;9.00;3.70;;;;;;;7.31;56.95;98413.63;5111931;28;20448;-72
2021/10/23 05:18:52;;;;;;;8.52;4.00;;;;;;;7.28;57.35;98412.91;5112462;28;20080;-77
2021/10/23 05:21:19;;;;;;;12.70;4.00;;;;;;;8.44;55.02;98410.03;5111965;28;20043;-79
2021/10/23 05:23:46;;;;;;;14.50;4.70;;;;;;;9.36;52.33;98415.91;5094404;28;20043;-78
2021/10/23 05:26:13;;;;;;;9.60;4.28;;;;;;;9.90;50.36;98417.97;5094974;28;20384;-79
2021/10/23 05:28:39;;;;;;;10.10;3.65;;;;;;;10.54;49.24;98405.66;5113808;28;20051;-81
2021/10/23 05:31:05;;;;;;;12.00;4.15;;;;;;;11.01;47.94;98412.56;5112356;28;20044;-84
2021/10/23 05:33:31;;;;;;;8.20;4.07;;;;;;;10.98;47.48;98408.41;5077645;28;20477;-77
2021/10/23 05:35:57;;;;;;;17.52;6.32;;;;;;;11.46;46.43;98408.94;5111828;28;20040;-83
2021/10/23 05:38:23;;;;;;;70.03;21.45;;;;;;;11.80;45.11;98407.28;5077368;28;20053;-77
2021/10/23 05:40:49;;;;;;;12.90;4.78;;;;;;;12.12;44.76;98417.25;5093983;28;20043;-81
2021/10/23 05:43:15;;;;;;;10.68;4.28;;;;;;;12.06;44.02;98423.19;5112186;28;20088;-80
2021/10/23 05:45:41;;;;;;;12.65;3.92;;;;;;;12.33;43.74;98415.19;5094105;28;20035;-78
2021/10/23 05:48:06;;;;;;;10.38;3.88;;;;;;;12.68;43.02;98415.91;5085975;28;20628;-80
2021/10/23 05:50:32;;;;;;;17.83;3.80;;;;;;;12.82;42.76;98417.09;5112177;28;20118;-82
2021/10/23 05:52:58;;;;;;;11.65;3.85;;;;;;;12.71;41.59;98415.56;5062284;28;20123;-81
2021/10/23 05:55:24;;;;;;;10.43;4.60;;;;;;;13.09;41.38;98418.59;5109213;28;20135;-80
2021/10/23 05:57:50;;;;;;;13.35;3.55;;;;;;;13.41;40.41;98412.47;5067969;28;20051;-79
2021/10/23 06:00:16;;;;;;;10.30;3.60;;;;;;;13.40;39.35;98423.28;5066672;28;20035;-79
2021/10/23 06:02:44;;;;;;;9.45;3.55;;;;;;;13.37;39.69;98419.13;5105322;28;20076;-76
2021/10/23 06:05:10;;;;;;;9.98;3.42;;;;;;;13.34;39.56;98432.69;5109067;28;20035;-81
2021/10/23 06:07:38;;;;;;;11.02;4.18;;;;;;;13.79;39.00;98427.84;5110866;28;20059;-80
2021/10/23 06:10:06;;;;;;;16.33;5.75;;;;;;;14.71;37.59;98419.31;5092747;28;20043;-80
2021/10/23 06:12:32;;;;;;;20.48;5.80;;;;;;;14.37;37.04;98423.16;5111347;28;20047;-80
2021/10/23 06:14:58;;;;;;;10.82;4.05;;;;;;;12.93;39.49;98433.53;5110219;28;20056;-80
2021/10/23 06:17:24;;;;;;;14.63;3.92;;;;;;;11.81;41.68;98428.34;5091884;28;20050;-78
2021/10/23 06:19:50;;;;;;;13.25;4.15;;;;;;;11.27;43.08;98430.31;5099756;28;20377;-83
2021/10/23 06:22:16;;;;;;;7.35;3.83;;;;;;;10.04;44.69;98450.00;5112613;28;20093;-76
2021/10/23 06:24:42;;;;;;;17.58;4.55;;;;;;;9.81;45.98;98446.88;5105843;28;20582;-79
2021/10/23 06:27:08;;;;;;;11.07;3.83;;;;;;;10.33;45.47;98427.91;5086650;28;20046;-82
2021/10/23 06:29:34;;;;;;;13.13;4.03;;;;;;;10.54;45.25;98439.22;5059512;28;20408;-82
2021/10/23 06:32:00;;;;;;;9.50;3.00;;;;;;;10.40;44.99;98438.72;5088249;28;20043;-80
2021/10/23 06:34:26;;;;;;;9.68;3.67;;;;;;;10.11;46.08;98452.91;5108928;28;20032;-79
2021/10/23 06:36:52;;;;;;;10.73;3.42;;;;;;;9.70;46.73;98449.72;5074009;28;20051;-81
2021/10/23 06:39:18;;;;;;;11.88;3.28;;;;;;;9.36;47.52;98452.84;5056704;28;20118;-83
2021/10/23 06:41:44;;;;;;;9.40;3.35;;;;;;;9.28;47.95;98455.34;5049315;28;20047;-80
2021/10/23 06:44:10;;;;;;;17.77;3.75;;;;;;;8.94;48.33;98461.06;5068916;28;20040;-81
2021/10/23 06:46:37;;;;;;;8.57;3.55;;;;;;;8.87;48.59;98445.78;5090815;28;20055;-82
2021/10/23 06:49:04;;;;;;;8.90;3.60;;;;;;;8.76;49.13;98455.59;5073364;28;20103;-80
2021/10/23 06:51:30;;;;;;;9.13;3.55;;;;;;;8.56;49.42;98466.97;5106739;28;20036;-81
2021/10/23 06:53:56;;;;;;;8.32;3.08;;;;;;;8.50;49.71;98450.84;5076444;28;20062;-79
2021/10/23 06:56:23;;;;;;;16.42;3.70;;;;;;;8.33;50.10;98463.66;5073413;28;20092;-81
2021/10/23 06:58:50;;;;;;;10.73;3.33;;;;;;;8.35;50.17;98458.25;5088582;28;20139;-80
2021/10/23 07:01:16;;;;;;;9.88;3.40;;;;;;;8.32;50.54;98461.19;5057166;28;20185;-80
2021/10/23 07:03:43;;;;;;;9.38;3.53;;;;;;;8.32;50.53;98464.63;5095090;28;20043;-80
2021/10/23 07:06:09;;;;;;;13.98;4.40;;;;;;;8.21;50.95;98454.19;5097946;28;20065;-82
2021/10/23 07:08:41;;;;;;;16.10;5.07;;;;;;;8.12;51.19;98469.00;5075911;28;20060;-81
2021/10/23 07:11:08;;;;;;;10.45;3.85;;;;;;;8.03;50.85;98465.38;5095027;28;20130;-81
2021/10/23 07:13:34;;;;;;;12.15;4.40;;;;;;;8.01;51.52;98472.59;5064122;28;20478;-83
2021/10/23 07:16:03;;;;;;;74.38;24.30;;;;;;;7.87;52.02;98471.09;5048784;28;20045;-82
2021/10/23 07:18:29;;;;;;;7.50;3.70;;;;;;;7.92;51.50;98460.19;5037474;28;20620;-81
2021/10/23 07:20:56;;;;;;;12.95;4.13;;;;;;;7.96;51.66;98466.03;5083646;28;20032;-86
2021/10/23 07:23:22;;;;;;;11.43;4.50;;;;;;;8.03;51.72;98472.44;5029218;28;20408;-82
2021/10/23 07:25:48;;;;;;;13.10;3.65;;;;;;;8.02;52.03;98476.88;5061982;28;20083;-80
2021/10/23 07:28:17;;;;;;;12.05;4.18;;;;;;;8.04;52.04;98476.75;5029027;28;20063;-87
2021/10/23 07:30:43;;;;;;;9.27;3.80;;;;;;;8.07;51.94;98463.31;5009711;28;20410;-80
2021/10/23 07:33:09;;;;;;;14.95;3.95;;;;;;;8.11;51.82;98462.06;5067906;28;20032;-80
2021/10/23 07:35:35;;;;;;;8.18;3.83;;;;;;;8.17;51.46;98472.06;5070816;28;20039;-79
2021/10/23 07:38:02;;;;;;;16.83;3.97;;;;;;;7.98;51.97;98461.47;5059592;28;20043;-81
2021/10/23 07:40:28;;;;;;;11.05;3.50;;;;;;;7.84;52.58;98476.66;5050795;28;20115;-80
2021/10/23 07:42:53;;;;;;;10.70;3.47;;;;;;;7.81;52.35;98476.06;5069994;28;20544;-79
2021/10/23 07:45:19;;;;;;;31.50;13.25;;;;;;;7.66;52.94;98483.47;5073972;28;20481;-78
2021/10/23 07:47:45;;;;;;;58.08;21.00;;;;;;;7.72;52.80;98472.44;5074009;28;20119;-80
2021/10/23 07:50:12;;;;;;;42.85;14.98;;;;;;;7.67;52.96;98469.34;5051859;28;20132;-82
2021/10/23 07:52:39;;;;;;;15.13;5.22;;;;;;;7.63;53.29;98484.56;5056312;28;20476;-80
2021/10/23 07:55:07;;;;;;;17.33;5.03;;;;;;;7.61;53.68;98476.81;5072338;28;20047;-81
2021/10/23 07:57:34;;;;;;;19.58;5.47;;;;;;;7.67;53.23;98479.88;5055972;28;20047;-79
2021/10/23 08:00:13;;;;;;;21.27;5.60;;;;;;;7.74;53.91;98483.66;5058347;28;20376;-78
2021/10/23 08:02:52;;;;;;;11.68;4.90;;;;;;;7.73;53.26;98482.81;5066450;28;20043;-81
2021/10/23 08:05:25;;;;;;;28.85;9.73;;;;;;;7.84;53.86;98489.81;5041688;28;20088;-81
2021/10/23 08:08:01;;;;;;;23.00;7.72;;;;;;;7.91;53.11;98487.47;5044367;28;20112;-81
2021/10/23 08:10:36;;;;;;;31.65;10.93;;;;;;;7.95;53.10;98491.53;5043282;28;20123;-83
2021/10/23 08:13:06;;;;;;;20.55;7.18;;;;;;;7.95;52.95;98478.38;5047135;28;20048;-84
2021/10/23 08:15:37;;;;;;;11.18;4.57;;;;;;;7.96;52.76;98473.94;5055748;28;20044;-80
2021/10/23 08:18:10;;;;;;;14.55;5.93;;;;;;;8.07;52.66;98487.00;5089051;28;20039;-80
2021/10/23 08:20:36;;;;;;;17.38;6.65;;;;;;;8.29;52.51;98480.72;5047098;28;20135;-82
2021/10/23 08:23:03;;;;;;;24.30;8.95;;;;;;;8.43;52.22;98487.41;5044391;28;20123;-83
2021/10/23 08:25:29;;;;;;;16.75;7.05;;;;;;;8.49;51.55;98489.53;5072661;28;20032;-82
2021/10/23 08:27:55;;;;;;;17.52;7.00;;;;;;;8.64;51.28;98483.91;5041279;28;20046;-81
2021/10/23 08:30:24;;;;;;;20.38;6.65;;;;;;;8.73;51.46;98488.34;5046116;28;20040;-85
2021/10/23 08:32:51;;;;;;;18.80;7.10;;;;;;;8.77;51.25;98495.00;5043669;28;20080;-84
2021/10/23 08:35:18;;;;;;;16.67;6.05;;;;;;;8.78;51.22;98493.22;5056799;28;20044;-80
2021/10/23 08:37:46;;;;;;;25.73;8.75;;;;;;;8.68;51.25;98491.38;5076221;28;20067;-81
2021/10/23 08:40:13;;;;;;;13.93;5.07;;;;;;;8.75;51.27;98491.69;5092884;28;20048;-81
2021/10/23 08:42:40;;;;;;;16.88;5.25;;;;;;;8.75;51.45;98489.06;5045562;28;20044;-81
2021/10/23 08:45:07;;;;;;;15.50;6.40;;;;;;;8.80;51.41;98493.91;5059607;28;20076;-80
2021/10/23 08:47:39;;;;;;;27.85;6.70;;;;;;;8.81;51.25;98490.28;5059148;28;20036;-81
2021/10/23 08:50:07;;;;;;;19.27;5.97;;;;;;;8.71;51.44;98490.28;5058981;28;20044;-84
2021/10/23 08:52:33;;;;;;;14.20;5.03;;;;;;;8.64;51.00;98494.44;5059070;28;20040;-83
2021/10/23 08:54:59;;;;;;;47.95;16.20;;;;;;;8.61;51.51;98497.34;5092578;28;20035;-77
2021/10/23 08:57:26;;;;;;;20.17;7.50;;;;;;;8.51;51.78;98495.53;5093063;28;20485;-77
2021/10/23 08:59:52;;;;;;;30.15;10.10;;;;;;;8.55;51.89;98502.19;5094400;28;20047;-78
2021/10/23 09:02:20;;;;;;;24.38;8.65;;;;;;;8.49;51.95;98502.72;5094438;28;20051;-79
2021/10/23 09:04:48;;;;;;;28.75;10.23;;;;;;;8.45;52.57;98501.31;5092741;28;20036;-80
2021/10/23 09:07:14;;;;;;;26.33;9.35;;;;;;;8.47;53.04;98504.66;5075199;28;20043;-80
2021/10/23 09:09:45;;;;;;;31.48;10.68;;;;;;;8.96;53.04;98503.91;5093470;28;20044;-81
2021/10/23 09:12:31;;;;;;;21.98;9.20;;;;;;;9.82;51.46;98509.28;5093979;28;20082;-79
2021/10/23 09:15:17;;;;;;;14.48;5.32;;;;;;;10.26;49.91;98492.06;5077524;28;20125;-81
2021/10/23 09:17:53;;;;;;;22.10;6.53;;;;;;;9.68;50.53;98499.16;5071648;28;20052;-81
2021/10/23 09:20:22;;;;;;;15.70;5.55;;;;;;;9.31;51.17;98508.66;5072481;28;20055;-79
2021/10/23 09:22:50;;;;;;;15.13;6.13;;;;;;;9.11;51.47;98502.56;5071661;28;20036;-81
2021/10/23 09:25:28;;;;;;;18.02;7.10;;;;;;;9.13;51.57;98499.78;5071892;28;20090;-82
2021/10/23 09:28:05;;;;;;;18.20;6.15;;;;;;;9.12;51.06;98498.94;5074737;28;20052;-78
2021/10/23 09:30:46;;;;;;;11.15;5.13;;;;;;;9.14;50.93;98493.53;5073232;28;20485;-77
2021/10/23 09:33:15;;;;;;;19.57;6.50;;;;;;;9.41;50.58;98490.19;5072248;28;20131;-78
2021/10/23 09:35:48;;;;;;;16.30;5.50;;;;;;;9.73;49.57;98491.66;5075841;28;20055;-79
2021/10/23 09:38:16;;;;;;;16.40;5.13;;;;;;;10.72;47.05;98485.03;5060458;28;20075;-81
2021/10/23 09:40:43;;;;;;;24.85;7.10;;;;;;;11.07;45.98;98493.16;5058977;28;20121;-80
2021/10/23 09:43:18;;;;;;;14.43;5.80;;;;;;;10.07;47.28;98493.78;5056534;28;20152;-78
2021/10/23 09:45:59;;;;;;;14.40;6.40;;;;;;;9.81;48.14;98491.78;5073944;28;20052;-78
2021/10/23 09:48:46;;;;;;;16.58;9.38;;;;;;;9.82;48.65;98496.09;5072646;28;20094;-78
2021/10/23 09:51:29;;;;;;;17.15;5.78;;;;;;;9.79;48.40;98506.09;5074294;28;20063;-79
2021/10/23 09:54:04;;;;;;;12.07;5.15;;;;;;;9.90;48.42;98505.13;5073729;28;20801;-80
2021/10/23 09:56:37;;;;;;;19.95;6.18;;;;;;;9.93;48.36;98503.03;5055543;28;20041;-78
2021/10/23 09:59:10;;;;;;;11.35;4.82;;;;;;;9.92;48.19;98501.34;5073614;28;20052;-77
2021/10/23 10:01:46;;;;;;;20.27;7.80;;;;;;;10.02;48.46;98512.72;5074592;28;20044;-80
2021/10/23 10:04:14;;;;;;;21.52;7.68;;;;;;;10.16;48.10;98500.84;5080004;28;20052;-77
2021/10/23 10:06:44;;;;;;;20.70;6.00;;;;;;;10.22;47.65;98490.66;5071762;28;20040;-77
2021/10/23 10:09:11;;;;;;;17.80;6.00;;;;;;;10.65;47.25;98486.59;5085185;28;20044;-76
2021/10/23 10:11:37;;;;;;;18.75;7.65;;;;;;;11.29;45.65;98490.03;5076332;28;20032;-80
2021/10/23 10:14:06;;;;;;;18.13;7.93;;;;;;;11.44;44.78;98477.09;5087846;28;20064;-79
2021/10/23 10:16:32;;;;;;;35.25;14.07;;;;;;;11.43;44.68;98485.19;5114685;28;20404;-82
2021/10/23 10:18:58;;;;;;;14.65;5.43;;;;;;;11.59;44.55;98489.75;5113453;28;20096;-79
2021/10/23 10:21:32;;;;;;;25.52;10.23;;;;;;;12.08;43.54;98492.75;5114002;28;20051;-79
2021/10/23 10:23:58;;;;;;;16.48;6.80;;;;;;;11.61;43.37;98487.78;5062336;28;20049;-81
2021/10/23 10:26:29;;;;;;;19.30;8.25;;;;;;;11.13;44.64;98497.84;5112445;28;20051;-83
2021/10/23 10:31:57;;;;;;;15.32;5.22;;;;;;;10.49;45.68;98525.09;5091915;28;20062;-83
2021/10/23 10:42:56;;;;;;;14.52;5.30;;;;;;;10.56;45.34;98530.63;5105130;28;20591;-80
2021/10/23 10:45:34;;;;;;;11.57;5.40;;;;;;;10.32;46.00;98539.06;5065530;28;20082;-79
2021/10/23 10:48:29;;;;;;;15.60;5.18;;;;;;;10.17;46.49;98530.75;5055984;28;20082;-81
2021/10/23 10:50:57;;;;;;;13.07;5.45;;;;;;;10.17;46.48;98536.03;5062393;28;20078;-79
2021/10/23 10:53:24;;;;;;;17.40;5.85;;;;;;;10.17;47.25;98542.16;5110335;28;20496;-80
2021/10/23 10:56:13;;;;;;;18.33;6.28;;;;;;;10.33;46.62;98525.69;5096515;28;20035;-81
2021/10/23 10:58:45;;;;;;;28.95;9.82;;;;;;;11.13;45.38;98527.78;5108382;28;20503;-77
2021/10/23 11:01:37;;;;;;;11.60;5.63;;;;;;;11.23;44.13;98526.88;5107949;28;20499;-79
2021/10/23 11:04:11;;;;;;;16.23;5.45;;;;;;;11.12;44.60;98534.03;5052306;28;20460;-79
2021/10/23 11:06:42;;;;;;;10.75;5.18;;;;;;;10.97;44.73;98527.59;5104253;27;20043;-81
2021/10/23 11:09:11;;;;;;;11.02;5.60;;;;;;;10.91;44.69;98544.06;5092747;28;20046;-76
2021/10/23 11:11:46;;;;;;;23.13;7.20;;;;;;;10.76;45.32;98547.22;5112057;28;20050;-78
2021/10/23 11:14:24;;;;;;;29.48;8.73;;;;;;;10.24;46.23;98545.03;5113149;28;20056;-80
2021/10/23 11:17:02;;;;;;;17.05;6.15;;;;;;;9.96;46.83;98542.34;5114617;28;20035;-78
2021/10/23 11:19:28;;;;;;;;;;;;;;;9.75;47.30;98562.81;5116026;28;20047;-79
2021/10/23 11:22:32;;;;;;;17.58;6.88;;;;;;;9.43;48.06;98579.78;5080606;28;19926;-79
2021/10/23 11:25:03;;;;;;;33.85;12.57;;;;;;;9.48;48.39;98567.00;5097239;28;20039;-79
2021/10/23 11:27:44;;;;;;;28.98;9.27;;;;;;;9.23;48.79;98564.78;5064419;28;20040;-80
2021/10/23 11:30:33;;;;;;;;;;;;;;;9.15;48.88;98572.53;5097949;28;20578;-78
2021/10/23 11:33:01;;;;;;;22.70;9.10;;;;;;;9.17;49.00;98567.97;5115503;28;19919;-79
2021/10/23 11:35:52;;;;;;;22.10;7.88;;;;;;;9.11;49.36;98568.50;5115383;28;20135;-79
2021/10/23 11:38:21;;;;;;;17.85;6.45;;;;;;;9.06;49.08;98566.25;5096893;28;20130;-80
2021/10/23 11:40:52;;;;;;;23.05;8.32;;;;;;;8.95;49.35;98570.81;5115894;28;20032;-80
2021/10/23 11:43:18;;;;;;;50.30;15.60;;;;;;;9.40;48.84;98570.31;5097168;28;20040;-81
2021/10/23 11:45:45;;;;;;;14.15;5.97;;;;;;;9.54;48.45;98566.44;5048188;28;20054;-80
2021/10/23 11:48:12;;;;;;;16.50;6.05;;;;;;;9.75;48.64;98573.38;5097785;28;20051;-79
2021/10/23 11:50:47;;;;;;;13.73;7.18;;;;;;;9.82;48.06;98567.38;5096958;28;20044;-80